createdAt,value
2017-09-20T00:01:18.702Z,11.10
2017-09-20T00:03:51.569Z,10.27
2017-09-20T00:06:25.296Z,10.90
2017-09-20T00:08:51.906Z,10.47
2017-09-20T00:11:30.321Z,9.77
2017-09-20T00:14:03.262Z,11.67
2017-09-20T00:16:29.519Z,10.43
2017-09-20T00:18:55.761Z,10.03
2017-09-20T00:21:34.143Z,9.30
2017-09-20T00:24:06.745Z,10.60
2017-09-20T00:26:32.974Z,10.00
2017-09-20T00:29:11.455Z,10.20
2017-09-20T00:31:37.699Z,10.10
2017-09-20T00:34:03.930Z,10.90
2017-09-20T00:36:30.206Z,12.83
2017-09-20T00:38:56.434Z,13.60
2017-09-20T00:41:22.690Z,12.30
2017-09-20T00:43:48.966Z,11.70
2017-09-20T00:46:15.202Z,12.33
2017-09-20T00:48:41.450Z,11.20
2017-09-20T00:51:07.743Z,10.50
2017-09-20T00:53:33.974Z,10.63
2017-09-20T00:56:00.202Z,9.40
2017-09-20T00:58:26.466Z,8.17
2017-09-20T01:00:52.719Z,8.80
2017-09-20T01:03:19.698Z,9.03
2017-09-20T01:05:46.018Z,7.63
2017-09-20T01:08:12.990Z,7.70
2017-09-20T01:10:39.210Z,9.03
2017-09-20T01:13:05.494Z,7.93
2017-09-20T01:15:31.869Z,7.53
2017-09-20T01:17:58.110Z,7.30
2017-09-20T01:20:36.670Z,7.57
2017-09-20T01:23:15.170Z,7.40
2017-09-20T01:25:41.685Z,6.80
2017-09-20T01:28:07.915Z,6.97
2017-09-20T01:30:34.166Z,7.87
2017-09-20T01:33:00.438Z,8.10
2017-09-20T01:35:26.686Z,8.50
2017-09-20T01:37:53.658Z,7.27
2017-09-20T01:40:19.929Z,7.10
2017-09-20T01:42:46.238Z,7.17
2017-09-20T01:45:12.458Z,7.70
2017-09-20T01:47:38.734Z,7.03
2017-09-20T01:50:04.986Z,7.17
2017-09-20T01:52:32.043Z,7.47
2017-09-20T01:54:59.046Z,6.50
2017-09-20T01:57:25.338Z,6.50
2017-09-20T01:59:51.570Z,6.10
2017-09-20T02:02:18.106Z,6.30
2017-09-20T02:04:44.333Z,6.50
2017-09-20T02:07:11.300Z,6.40
2017-09-20T02:09:37.647Z,6.40
2017-09-20T02:12:03.919Z,6.20
2017-09-20T02:14:30.899Z,6.10
2017-09-20T02:16:57.156Z,6.83
2017-09-20T02:19:23.387Z,6.63
2017-09-20T02:21:49.613Z,6.33
2017-09-20T02:24:15.871Z,7.50
2017-09-20T02:26:42.386Z,7.10
2017-09-20T02:29:08.611Z,7.73
2017-09-20T02:31:34.851Z,6.10
2017-09-20T02:34:01.107Z,5.80
2017-09-20T02:36:27.398Z,7.70
2017-09-20T02:38:53.688Z,7.33
2017-09-20T02:41:19.921Z,7.00
2017-09-20T02:43:46.162Z,7.07
2017-09-20T02:46:13.205Z,7.10
2017-09-20T02:48:39.442Z,7.13
2017-09-20T02:51:06.459Z,6.37
2017-09-20T02:53:32.719Z,6.97
2017-09-20T02:55:59.717Z,8.10
2017-09-20T02:58:25.967Z,6.80
2017-09-20T03:00:52.229Z,6.73
2017-09-20T03:03:18.494Z,7.50
2017-09-20T03:05:44.739Z,7.63
2017-09-20T03:08:11.002Z,7.43
2017-09-20T03:10:38.018Z,7.63
2017-09-20T03:13:04.254Z,8.30
2017-09-20T03:15:30.519Z,6.93
2017-09-20T03:17:56.765Z,6.90
2017-09-20T03:20:23.010Z,8.60
2017-09-20T03:22:50.014Z,8.17
2017-09-20T03:25:16.238Z,8.63
2017-09-20T03:27:46.030Z,8.20
2017-09-20T03:30:12.279Z,7.90
2017-09-20T03:32:38.514Z,6.77
2017-09-20T03:35:04.758Z,7.60
2017-09-20T03:37:31.052Z,6.70
2017-09-20T03:39:57.354Z,8.03
2017-09-20T03:42:23.589Z,8.10
2017-09-20T03:44:50.602Z,7.00
2017-09-20T03:47:16.846Z,7.20
2017-09-20T03:49:43.073Z,7.80
2017-09-20T03:52:10.080Z,7.13
2017-09-20T03:54:36.313Z,7.40
2017-09-20T03:57:02.538Z,5.63
2017-09-20T03:59:28.872Z,5.90
2017-09-20T04:01:55.105Z,5.97
2017-09-20T04:04:21.346Z,6.23
2017-09-20T04:06:47.616Z,5.90
2017-09-20T04:09:13.942Z,5.50
2017-09-20T04:11:40.641Z,5.37
2017-09-20T04:14:07.216Z,5.60
2017-09-20T04:16:33.607Z,5.20
2017-09-20T04:18:59.908Z,4.63
2017-09-20T04:21:26.310Z,5.53
2017-09-20T04:23:52.538Z,5.10
2017-09-20T04:26:19.175Z,5.20
2017-09-20T04:28:45.699Z,5.50
2017-09-20T04:31:11.958Z,4.43
2017-09-20T04:33:38.197Z,4.67
2017-09-20T04:36:04.580Z,4.73
2017-09-20T04:38:30.808Z,4.40
2017-09-20T04:40:58.064Z,5.07
2017-09-20T04:43:25.175Z,5.00
2017-09-20T04:45:51.419Z,4.27
2017-09-20T04:48:17.915Z,4.30
2017-09-20T04:50:44.322Z,4.57
2017-09-20T04:53:10.586Z,4.70
2017-09-20T04:55:37.280Z,3.90
2017-09-20T04:58:03.720Z,4.47
2017-09-20T05:00:30.259Z,5.17
2017-09-20T05:02:56.811Z,4.17
2017-09-20T05:05:24.199Z,4.60
2017-09-20T05:07:50.517Z,4.20
2017-09-20T05:10:16.771Z,4.33
2017-09-20T05:12:43.380Z,5.20
2017-09-20T05:15:09.811Z,5.97
2017-09-20T05:17:36.121Z,5.77
2017-09-20T05:20:02.759Z,5.30
2017-09-20T05:22:29.730Z,4.20
2017-09-20T05:24:55.960Z,5.20
2017-09-20T05:27:22.778Z,6.47
2017-09-20T05:29:50.394Z,5.40
2017-09-20T05:32:17.103Z,5.67
2017-09-20T05:34:44.219Z,5.10
2017-09-20T05:37:10.463Z,5.67
2017-09-20T05:39:36.813Z,6.30
2017-09-20T05:42:03.670Z,5.30
2017-09-20T05:44:30.114Z,5.87
2017-09-20T05:46:56.951Z,5.80
2017-09-20T05:49:23.459Z,5.30
2017-09-20T05:51:50.435Z,5.73
2017-09-20T05:54:17.151Z,4.47
2017-09-20T05:56:43.415Z,5.00
2017-09-20T05:59:10.170Z,5.80
2017-09-20T06:01:36.667Z,5.43
2017-09-20T06:04:03.428Z,6.53
2017-09-20T06:06:30.490Z,5.73
2017-09-20T06:08:56.715Z,4.70
2017-09-20T06:11:23.434Z,4.87
2017-09-20T06:13:50.402Z,5.20
2017-09-20T06:16:16.660Z,5.10
2017-09-20T06:18:43.142Z,4.50
2017-09-20T06:21:10.034Z,5.17
2017-09-20T06:23:36.281Z,4.40
2017-09-20T06:26:02.534Z,5.17
2017-09-20T06:28:28.788Z,4.40
2017-09-20T06:30:55.399Z,4.63
2017-09-20T06:33:21.646Z,3.90
2017-09-20T06:35:48.910Z,4.53
2017-09-20T06:38:15.286Z,4.73
2017-09-20T06:40:41.838Z,5.60
2017-09-20T06:43:08.306Z,4.07
2017-09-20T06:45:37.621Z,3.50
2017-09-20T06:48:04.190Z,3.63
2017-09-20T06:50:31.288Z,3.80
2017-09-20T06:52:58.035Z,4.23
2017-09-20T06:55:24.350Z,3.80
2017-09-20T06:57:50.606Z,3.50
2017-09-20T07:00:16.874Z,3.23
2017-09-20T07:02:43.147Z,3.47
2017-09-20T07:05:09.396Z,4.90
2017-09-20T07:07:35.646Z,4.20
2017-09-20T07:10:02.684Z,4.00
2017-09-20T07:12:29.742Z,3.50
2017-09-20T07:14:55.974Z,3.93
2017-09-20T07:17:22.228Z,3.47
2017-09-20T07:19:48.468Z,3.27
2017-09-20T07:22:14.706Z,3.10
2017-09-20T07:24:40.986Z,3.93
2017-09-20T07:27:07.218Z,3.10
2017-09-20T07:29:33.506Z,3.83
2017-09-20T07:32:01.051Z,3.23
2017-09-20T07:34:27.324Z,3.10
2017-09-20T07:36:53.574Z,3.13
2017-09-20T07:39:19.822Z,3.50
2017-09-20T07:41:46.819Z,2.83
2017-09-20T07:44:13.125Z,3.07
2017-09-20T07:46:39.405Z,3.40
2017-09-20T07:49:05.647Z,2.60
2017-09-20T07:51:31.970Z,3.30
2017-09-20T07:53:59.111Z,2.93
2017-09-20T07:56:25.556Z,2.70
2017-09-20T07:58:52.007Z,2.83
2017-09-20T08:01:18.323Z,2.57
2017-09-20T08:03:44.566Z,3.13
2017-09-20T08:06:10.802Z,2.90
2017-09-20T08:08:37.086Z,3.20
2017-09-20T08:11:03.322Z,3.50
2017-09-20T08:13:29.552Z,3.17
2017-09-20T08:15:55.807Z,3.20
2017-09-20T08:18:22.063Z,3.80
2017-09-20T08:20:48.326Z,2.97
2017-09-20T08:23:14.595Z,2.40
2017-09-20T08:25:40.914Z,3.37
2017-09-20T08:28:07.134Z,2.60
2017-09-20T08:30:33.378Z,3.33
2017-09-20T08:33:00.613Z,3.20
2017-09-20T08:35:26.871Z,3.30
2017-09-20T08:37:53.314Z,3.23
2017-09-20T08:40:19.563Z,2.70
2017-09-20T08:42:45.846Z,2.57
2017-09-20T08:45:12.143Z,2.23
2017-09-20T08:47:39.123Z,2.43
2017-09-20T08:50:05.350Z,2.27
2017-09-20T08:52:32.422Z,2.87
2017-09-20T08:54:58.679Z,2.50
2017-09-20T08:57:24.926Z,2.20
2017-09-20T08:59:51.256Z,1.90
2017-09-20T09:02:18.244Z,2.17
2017-09-20T09:04:44.465Z,2.90
2017-09-20T09:07:11.465Z,1.97
2017-09-20T09:09:37.706Z,2.00
2017-09-20T09:12:03.949Z,2.50
2017-09-20T09:14:30.230Z,2.00
2017-09-20T09:16:56.465Z,2.47
2017-09-20T09:19:22.710Z,2.63
2017-09-20T09:21:48.989Z,2.70
2017-09-20T09:24:15.302Z,2.53
2017-09-20T09:26:41.570Z,3.43
2017-09-20T09:29:07.880Z,2.77
2017-09-20T09:31:34.102Z,2.70
2017-09-20T09:34:00.596Z,2.77
2017-09-20T09:36:26.867Z,3.27
2017-09-20T09:38:53.098Z,2.93
2017-09-20T09:41:19.358Z,3.43
2017-09-20T09:43:46.377Z,4.37
2017-09-20T09:46:12.626Z,2.93
2017-09-20T09:48:38.870Z,2.97
2017-09-20T09:51:05.894Z,3.10
2017-09-20T09:53:32.214Z,3.40
2017-09-20T09:55:58.464Z,3.87
2017-09-20T09:58:25.506Z,2.87
2017-09-20T10:00:51.804Z,3.10
2017-09-20T10:03:18.038Z,3.97
2017-09-20T10:05:44.322Z,2.60
2017-09-20T10:08:10.574Z,2.90
2017-09-20T10:10:36.836Z,3.43
2017-09-20T10:13:03.111Z,2.70
2017-09-20T10:15:30.113Z,3.17
2017-09-20T10:17:56.350Z,2.40
2017-09-20T10:20:22.648Z,2.87
2017-09-20T10:22:48.883Z,3.07
2017-09-20T10:25:15.122Z,2.67
2017-09-20T10:27:41.394Z,3.10
2017-09-20T10:30:07.691Z,2.53
2017-09-20T10:32:33.943Z,2.97
2017-09-20T10:35:00.745Z,2.97
2017-09-20T10:37:27.716Z,2.90
2017-09-20T10:39:54.014Z,2.60
2017-09-20T10:42:21.002Z,2.83
2017-09-20T10:44:47.251Z,2.40
2017-09-20T10:47:13.523Z,2.83
2017-09-20T10:49:47.574Z,2.33
2017-09-20T10:52:13.875Z,2.70
2017-09-20T10:54:40.846Z,2.30
2017-09-20T10:57:14.337Z,2.67
2017-09-20T10:59:41.350Z,2.87
2017-09-20T11:02:08.342Z,2.60
2017-09-20T11:04:34.625Z,2.70
2017-09-20T11:07:00.863Z,2.70
2017-09-20T11:09:30.631Z,2.20
2017-09-20T11:11:56.933Z,2.60
2017-09-20T11:14:24.478Z,2.60
2017-09-20T11:16:50.745Z,2.80
2017-09-20T11:19:24.463Z,3.47
2017-09-20T11:21:50.698Z,2.90
2017-09-20T11:24:35.867Z,2.07
2017-09-20T11:27:04.399Z,2.17
2017-09-20T11:29:30.710Z,2.57
2017-09-20T11:31:56.983Z,3.37
2017-09-20T11:34:23.234Z,2.73
2017-09-20T11:36:49.743Z,2.97
2017-09-20T11:39:16.030Z,2.70
2017-09-20T11:41:42.270Z,3.60
2017-09-20T11:44:08.558Z,2.87
2017-09-20T11:46:36.306Z,3.40
2017-09-20T11:49:03.302Z,2.50
2017-09-20T11:51:33.127Z,2.90
2017-09-20T11:53:59.381Z,3.20
2017-09-20T11:56:27.622Z,3.67
2017-09-20T11:58:55.437Z,3.40
2017-09-20T12:01:22.798Z,3.43
2017-09-20T12:03:51.264Z,2.87
2017-09-20T12:06:18.283Z,3.67
2017-09-20T12:08:48.443Z,2.87
2017-09-20T12:11:14.674Z,2.37
2017-09-20T12:13:42.354Z,2.90
2017-09-20T12:16:09.385Z,2.87
2017-09-20T12:18:37.762Z,3.03
2017-09-20T12:21:04.018Z,3.10
2017-09-20T12:23:30.290Z,2.30
2017-09-20T12:25:57.626Z,3.93
2017-09-20T12:28:24.628Z,2.00
2017-09-20T12:33:27.518Z,2.37
2017-09-20T12:35:55.210Z,2.20
2017-09-20T12:38:21.994Z,2.40
2017-09-20T12:44:08.867Z,2.87
2017-09-20T12:46:36.990Z,2.17
2017-09-20T12:49:03.254Z,1.97
2017-09-20T12:51:29.538Z,10.27
2017-09-20T12:53:56.537Z,7.83
2017-09-20T12:56:22.783Z,3.23
2017-09-20T12:58:49.079Z,2.20
2017-09-20T13:01:16.039Z,2.80
2017-09-20T13:03:43.114Z,2.90
2017-09-20T13:06:09.453Z,1.67
2017-09-20T13:08:35.720Z,2.87
2017-09-20T13:11:02.807Z,2.30
2017-09-20T13:13:29.057Z,2.93
2017-09-20T13:15:55.299Z,2.27
2017-09-20T13:18:21.554Z,2.77
2017-09-20T13:20:50.818Z,3.00
2017-09-20T13:23:17.090Z,3.13
2017-09-20T13:25:43.343Z,2.20
2017-09-20T13:28:10.352Z,2.30
2017-09-20T13:30:36.605Z,2.90
2017-09-20T13:33:03.602Z,2.73
2017-09-20T13:35:29.882Z,3.00
2017-09-20T13:37:56.124Z,2.70
2017-09-20T13:40:22.630Z,2.80
2017-09-20T13:42:50.440Z,2.63
2017-09-20T13:45:18.699Z,3.13
2017-09-20T13:47:44.954Z,3.20
2017-09-20T13:50:11.259Z,3.10
2017-09-20T13:52:37.502Z,2.90
2017-09-20T13:55:04.487Z,2.93
2017-09-20T13:57:30.728Z,2.97
2017-09-20T13:59:56.954Z,3.37
2017-09-20T14:02:23.285Z,3.50
2017-09-20T14:04:49.577Z,3.20
2017-09-20T14:07:16.566Z,3.80
2017-09-20T14:09:42.806Z,2.63
2017-09-20T14:12:09.115Z,3.00
2017-09-20T14:14:35.318Z,4.43
2017-09-20T14:17:01.624Z,4.80
2017-09-20T14:19:27.870Z,2.97
2017-09-20T14:21:54.106Z,3.73
2017-09-20T14:24:20.330Z,2.93
2017-09-20T14:26:46.588Z,3.50
2017-09-20T14:29:13.551Z,2.77
2017-09-20T14:31:40.559Z,2.73
2017-09-20T14:34:06.856Z,2.73
2017-09-20T14:36:33.103Z,3.10
2017-09-20T14:38:59.337Z,2.40
2017-09-20T14:41:25.874Z,2.77
2017-09-20T14:43:52.123Z,2.90
2017-09-20T14:46:18.354Z,3.97
2017-09-20T14:48:44.630Z,3.63
2017-09-20T14:51:10.866Z,3.80
2017-09-20T14:53:37.090Z,3.20
2017-09-20T14:56:03.350Z,3.57
2017-09-20T14:58:30.522Z,2.87
2017-09-20T15:00:58.114Z,3.60
2017-09-20T15:03:24.763Z,3.93
2017-09-20T15:05:51.762Z,4.17
2017-09-20T15:08:18.018Z,3.87
2017-09-20T15:10:47.074Z,4.27
2017-09-20T15:13:13.325Z,3.90
2017-09-20T15:15:41.578Z,4.83
2017-09-20T15:18:07.866Z,4.10
2017-09-20T15:20:34.859Z,4.50
2017-09-20T15:23:01.749Z,5.20
2017-09-20T15:25:28.355Z,4.80
2017-09-20T15:27:54.659Z,5.80
2017-09-20T15:30:21.899Z,6.40
2017-09-20T15:32:49.269Z,4.90
2017-09-20T15:35:15.912Z,4.60
2017-09-20T15:37:42.150Z,8.30
2017-09-20T15:40:08.779Z,4.57
2017-09-20T15:42:35.431Z,5.30
2017-09-20T15:45:02.070Z,6.27
2017-09-20T15:47:28.322Z,4.93
2017-09-20T15:49:54.751Z,5.70
2017-09-20T15:52:21.252Z,6.03
2017-09-20T15:54:47.555Z,4.77
2017-09-20T15:57:14.311Z,5.20
2017-09-20T15:59:40.886Z,4.33
2017-09-20T16:02:07.442Z,6.93
2017-09-20T16:04:33.851Z,6.30
2017-09-20T16:07:00.826Z,6.13
2017-09-20T16:09:27.093Z,6.57
2017-09-20T16:11:53.374Z,5.93
2017-09-20T16:14:19.615Z,6.27
2017-09-20T16:16:46.895Z,6.00
2017-09-20T16:19:13.126Z,6.13
2017-09-20T16:21:39.493Z,6.03
2017-09-20T16:24:06.290Z,6.27
2017-09-20T16:26:33.338Z,5.37
2017-09-20T16:28:59.571Z,5.03
2017-09-20T16:31:26.168Z,5.43
2017-09-20T16:33:53.354Z,5.40
2017-09-20T16:36:20.525Z,5.10
2017-09-20T16:38:47.935Z,5.63
2017-09-20T16:41:14.324Z,5.60
2017-09-20T16:43:41.276Z,5.80
2017-09-20T16:46:08.551Z,5.80
2017-09-20T16:48:34.948Z,6.50
2017-09-20T16:51:01.478Z,8.50
2017-09-20T16:53:28.549Z,6.43
2017-09-20T16:55:55.776Z,6.30
2017-09-20T16:58:22.010Z,6.37
2017-09-20T17:00:48.252Z,12.37
2017-09-20T17:03:15.002Z,7.00
2017-09-20T17:05:41.594Z,6.67
2017-09-20T17:08:08.626Z,6.50
2017-09-20T17:10:34.878Z,7.30
2017-09-20T17:13:01.162Z,7.10
2017-09-20T17:15:28.244Z,7.60
2017-09-20T17:17:54.558Z,7.13
2017-09-20T17:20:20.810Z,6.30
2017-09-20T17:22:47.173Z,6.50
2017-09-20T17:25:13.630Z,6.90
2017-09-20T17:27:39.870Z,10.30
2017-09-20T17:30:06.144Z,7.60
2017-09-20T17:32:33.595Z,6.20
2017-09-20T17:35:07.731Z,13.03
2017-09-20T17:37:34.735Z,24.40
2017-09-20T17:40:01.137Z,9.17
2017-09-20T17:42:28.242Z,8.57
2017-09-20T17:44:55.051Z,8.47
2017-09-20T17:47:35.395Z,8.07
2017-09-20T17:50:02.732Z,6.03
2017-09-20T17:58:21.678Z,7.10
2017-09-20T18:00:47.918Z,7.73
2017-09-20T18:03:14.495Z,8.60
2017-09-20T18:05:41.023Z,8.37
2017-09-20T18:08:07.283Z,8.80
2017-09-20T18:10:34.402Z,8.90
2017-09-20T18:13:01.762Z,10.30
2017-09-20T18:15:28.791Z,9.50
2017-09-20T18:17:55.043Z,8.57
2017-09-20T18:20:24.523Z,9.00
2017-09-20T18:22:52.319Z,11.07
2017-09-20T18:25:30.144Z,41.73
2017-09-20T18:27:58.767Z,21.97
2017-09-20T18:30:29.548Z,12.50
2017-09-20T18:33:03.299Z,11.30
2017-09-20T18:35:42.485Z,8.70
2017-09-20T18:38:08.862Z,7.70
2017-09-20T18:40:35.200Z,10.30
2017-09-20T18:43:01.554Z,10.27
2017-09-20T18:45:38.431Z,9.17
2017-09-20T18:48:05.959Z,9.37
2017-09-20T18:50:49.939Z,9.80
2017-09-20T18:53:25.107Z,10.90
2017-09-20T18:55:58.819Z,10.00
2017-09-20T18:58:25.935Z,10.77
2017-09-20T19:00:56.409Z,10.43
2017-09-20T19:03:23.488Z,10.70
2017-09-20T19:05:49.734Z,12.03
2017-09-20T19:08:23.031Z,12.07
2017-09-20T19:10:54.355Z,10.03
2017-09-20T19:13:20.691Z,32.80
2017-09-20T19:16:02.986Z,20.60
2017-09-20T19:21:36.936Z,12.80
2017-09-20T19:24:10.027Z,14.33
2017-09-20T19:26:52.006Z,12.47
2017-09-20T19:29:22.153Z,14.13
2017-09-20T19:31:50.542Z,14.77
2017-09-20T19:34:17.666Z,11.73
2017-09-20T19:37:09.699Z,14.27
2017-09-20T19:39:41.418Z,12.87
2017-09-20T19:42:19.061Z,14.07
2017-09-20T19:44:49.852Z,12.70
2017-09-20T19:47:19.327Z,13.93
2017-09-20T19:49:55.755Z,16.07
2017-09-20T19:52:24.206Z,14.83
2017-09-20T19:54:50.524Z,14.50
2017-09-20T19:57:17.917Z,14.20
2017-09-20T19:59:44.259Z,13.53
2017-09-20T20:02:10.594Z,13.87
2017-09-20T20:04:36.886Z,14.10
2017-09-20T20:07:04.073Z,15.13
2017-09-20T20:12:22.581Z,22.23
2017-09-20T20:14:49.664Z,17.03
2017-09-20T20:17:15.941Z,14.17
2017-09-20T20:19:42.214Z,14.03
2017-09-20T20:22:09.248Z,14.43
2017-09-20T20:24:36.222Z,15.27
2017-09-20T20:27:02.510Z,14.83
2017-09-20T20:29:28.786Z,11.93
2017-09-20T20:31:55.018Z,14.73
2017-09-20T20:34:21.266Z,14.90
2017-09-20T20:36:47.550Z,14.53
2017-09-20T20:39:13.791Z,14.33
2017-09-20T20:41:45.638Z,13.07
2017-09-20T20:44:11.902Z,13.47
2017-09-20T20:46:38.152Z,13.97
2017-09-20T20:49:05.874Z,13.50
2017-09-20T20:51:39.290Z,14.90
2017-09-20T20:54:06.275Z,14.77
2017-09-20T20:56:32.842Z,14.17
2017-09-20T20:58:59.280Z,15.83
2017-09-20T21:01:25.547Z,14.53
2017-09-20T21:03:52.910Z,15.70
2017-09-20T21:06:19.251Z,16.93
2017-09-20T21:08:45.476Z,15.67
2017-09-20T21:11:12.703Z,16.73
2017-09-20T21:13:40.494Z,15.53
2017-09-20T21:16:07.055Z,14.00
2017-09-20T21:18:33.310Z,14.30
2017-09-20T21:20:59.586Z,15.40
2017-09-20T21:23:26.196Z,15.90
2017-09-20T21:25:52.668Z,15.30
2017-09-20T21:28:19.823Z,14.43
2017-09-20T21:30:46.819Z,15.90
2017-09-20T21:33:13.067Z,16.07
2017-09-20T21:35:39.524Z,17.67
2017-09-20T21:38:06.619Z,15.90
2017-09-20T21:40:32.863Z,15.10
2017-09-20T21:42:59.162Z,16.20
2017-09-20T21:45:25.449Z,16.80
2017-09-20T21:47:52.207Z,14.63
2017-09-20T21:50:18.760Z,16.00
2017-09-20T21:52:45.734Z,14.60
2017-09-20T21:55:11.970Z,14.37
2017-09-20T21:57:38.679Z,15.03
2017-09-20T22:00:05.002Z,15.30
2017-09-20T22:02:32.749Z,14.90
2017-09-20T22:04:59.310Z,15.67
2017-09-20T22:07:26.286Z,16.27
2017-09-20T22:09:52.765Z,16.37
2017-09-20T22:12:19.333Z,14.93
2017-09-20T22:14:46.529Z,16.33
2017-09-20T22:17:25.554Z,16.10
2017-09-20T22:20:04.030Z,16.07
2017-09-20T22:22:43.234Z,17.87
2017-09-20T22:25:21.830Z,17.93
2017-09-20T22:27:48.075Z,17.23
2017-09-20T22:30:14.318Z,16.77
2017-09-20T22:32:40.554Z,19.60
2017-09-20T22:35:06.814Z,17.47
2017-09-20T22:37:33.793Z,19.13
2017-09-20T22:40:00.035Z,18.70
2017-09-20T22:42:26.310Z,17.33
2017-09-20T22:44:52.550Z,17.10
2017-09-20T22:47:19.543Z,17.70
2017-09-20T22:49:45.834Z,18.07
2017-09-20T22:52:12.374Z,18.80
2017-09-20T22:54:39.349Z,18.47
2017-09-20T22:57:05.616Z,17.13
2017-09-20T22:59:31.909Z,17.77
2017-09-20T23:01:58.158Z,19.40
2017-09-20T23:04:24.415Z,18.33
2017-09-20T23:06:50.662Z,18.53
2017-09-20T23:09:16.917Z,18.67
2017-09-20T23:11:43.915Z,16.23
2017-09-20T23:14:10.198Z,17.67
2017-09-20T23:16:37.171Z,18.60
2017-09-20T23:19:03.497Z,18.63
2017-09-20T23:21:30.466Z,17.03
2017-09-20T23:23:56.708Z,17.43
2017-09-20T23:26:22.983Z,20.73
2017-09-20T23:28:49.976Z,17.60
2017-09-20T23:31:16.208Z,17.40
2017-09-20T23:33:42.455Z,18.20
2017-09-20T23:36:08.682Z,18.60
2017-09-20T23:38:34.911Z,18.13
2017-09-20T23:43:33.986Z,18.40
2017-09-20T23:46:00.988Z,20.23
2017-09-20T23:48:27.223Z,18.87
2017-09-20T23:50:53.455Z,20.37
2017-09-20T23:53:20.010Z,19.67
2017-09-20T23:55:46.269Z,20.63
